createdAt,value
2019-03-11T00:01:33.387Z,20.18
2019-03-11T00:07:28.393Z,17.7
2019-03-11T00:13:23.402Z,16.08
2019-03-11T00:19:18.366Z,21.08
2019-03-11T00:25:13.399Z,18.37
2019-03-11T00:31:08.442Z,10.33
2019-03-11T00:37:03.371Z,12.86
2019-03-11T00:42:58.387Z,10.4
2019-03-11T00:48:53.397Z,13.14
2019-03-11T00:54:48.391Z,11.1
2019-03-11T01:00:43.399Z,9.77
2019-03-11T01:06:38.421Z,10.13
2019-03-11T01:12:33.438Z,9.87
2019-03-11T01:18:28.398Z,7.67
2019-03-11T01:24:23.454Z,9.01
2019-03-11T01:30:18.449Z,6.63
2019-03-11T01:36:13.433Z,9.08
2019-03-11T01:42:08.417Z,10.7
2019-03-11T01:48:03.432Z,11.08
2019-03-11T01:53:58.438Z,12.82
2019-03-11T01:59:53.435Z,8.66
2019-03-11T02:05:48.425Z,7.16
2019-03-11T02:11:43.422Z,5.79
2019-03-11T02:17:38.438Z,4.95
2019-03-11T02:23:33.418Z,5.09
2019-03-11T02:29:28.439Z,5.75
2019-03-11T02:35:23.463Z,8.28
2019-03-11T02:41:18.462Z,9.6
2019-03-11T02:47:13.451Z,9.07
2019-03-11T02:53:08.441Z,8.83
2019-03-11T02:59:03.458Z,10.9
2019-03-11T03:04:58.492Z,6.4
2019-03-11T03:10:53.473Z,4.26
2019-03-11T03:16:48.462Z,4.73
2019-03-11T03:22:43.485Z,4.51
2019-03-11T03:28:38.484Z,4.49
2019-03-11T03:34:33.485Z,7.43
2019-03-11T03:40:28.497Z,6.56
2019-03-11T03:46:23.499Z,10.18
2019-03-11T03:52:18.496Z,10.42
2019-03-11T03:58:13.478Z,9.09
2019-03-11T04:04:08.575Z,9.88
2019-03-11T04:10:03.506Z,8.69
2019-03-11T04:15:58.506Z,11.07
2019-03-11T04:21:53.566Z,10.51
2019-03-11T04:27:48.516Z,8.35
2019-03-11T04:33:43.518Z,8.33
2019-03-11T04:39:38.511Z,8.35
2019-03-11T04:45:33.526Z,10
2019-03-11T04:51:28.549Z,7.84
2019-03-11T04:57:23.667Z,9.16
2019-03-11T05:03:18.522Z,8.86
2019-03-11T05:09:13.525Z,7.08
2019-03-11T05:15:08.545Z,6.83
2019-03-11T05:21:03.527Z,6.4
2019-03-11T05:26:58.536Z,7.99
2019-03-11T05:32:53.571Z,6
2019-03-11T05:38:48.583Z,7.43
2019-03-11T05:44:43.559Z,6.31
2019-03-11T05:50:38.607Z,8.13
2019-03-11T05:56:33.554Z,12.2
2019-03-11T06:02:28.559Z,9.47
2019-03-11T06:08:23.580Z,5.9
2019-03-11T06:14:18.565Z,8.1
2019-03-11T06:20:13.593Z,8.43
2019-03-11T06:26:08.563Z,6.53
2019-03-11T06:32:03.574Z,8.18
2019-03-11T06:37:58.590Z,5.63
2019-03-11T06:43:53.609Z,8.21
2019-03-11T06:49:48.595Z,8.81
2019-03-11T06:55:43.603Z,8.01
2019-03-11T07:01:38.600Z,5.45
2019-03-11T07:07:33.576Z,8.15
2019-03-11T07:13:28.610Z,10.58
2019-03-11T07:19:23.596Z,7.03
2019-03-11T07:25:18.607Z,7.16
2019-03-11T07:31:13.592Z,7.84
2019-03-11T07:37:08.704Z,7.84
2019-03-11T07:43:03.594Z,9.02
2019-03-11T07:48:58.624Z,8.62
2019-03-11T07:54:53.605Z,8.26
2019-03-11T08:00:53.606Z,8.29
2019-03-11T08:06:43.650Z,9.23
2019-03-11T08:12:38.634Z,8.52
2019-03-11T08:18:35.159Z,7.82
2019-03-11T08:24:28.630Z,7.84
2019-03-11T08:30:23.662Z,9.07
2019-03-11T08:36:18.662Z,9.09
2019-03-11T08:42:13.637Z,8.23
2019-03-11T08:48:08.634Z,10.19
2019-03-11T08:54:03.685Z,8.23
2019-03-11T08:59:58.658Z,9.91
2019-03-11T09:05:53.671Z,6.2
2019-03-11T09:11:48.654Z,6.51
2019-03-11T09:17:43.669Z,9.8
2019-03-11T09:23:38.666Z,11.16
2019-03-11T09:29:33.703Z,9.27
2019-03-11T09:35:28.680Z,7.5
2019-03-11T09:41:23.665Z,8.13
2019-03-11T09:47:18.669Z,11.02
2019-03-11T09:53:13.679Z,7.6
2019-03-11T09:59:08.684Z,6.64
2019-03-11T10:05:03.684Z,6.81
2019-03-11T10:10:58.686Z,6.38
2019-03-11T10:16:53.688Z,6.97
2019-03-11T10:22:48.686Z,6.49
2019-03-11T10:28:43.688Z,9.83
2019-03-11T10:34:38.766Z,8.33
2019-03-11T10:40:33.727Z,6.97
2019-03-11T10:46:28.692Z,5.32
2019-03-11T10:52:23.761Z,9.21
2019-03-11T10:58:18.717Z,6.27
2019-03-11T11:04:13.728Z,6.86
2019-03-11T11:10:08.708Z,8.67
2019-03-11T11:16:03.715Z,6.92
2019-03-11T11:21:58.749Z,6.18
2019-03-11T11:27:53.733Z,6.75
2019-03-11T11:33:48.724Z,5.35
2019-03-11T11:39:43.729Z,6.89
2019-03-11T11:45:38.737Z,6.9
2019-03-11T11:51:33.790Z,6.41
2019-03-11T11:57:28.752Z,5.6
2019-03-11T12:03:23.762Z,8.05
2019-03-11T12:09:18.756Z,8.83
2019-03-11T12:15:13.755Z,7.76
2019-03-11T12:21:08.776Z,8.48
2019-03-11T12:27:03.763Z,6.05
2019-03-11T12:32:58.782Z,8.21
2019-03-11T12:38:53.776Z,10.08
2019-03-11T12:44:48.796Z,5.89
2019-03-11T12:50:43.776Z,8.23
2019-03-11T12:56:38.773Z,7.98
2019-03-11T13:02:33.791Z,6.35
2019-03-11T13:08:28.802Z,7.99
2019-03-11T13:14:23.787Z,6.93
2019-03-11T13:20:19.235Z,7.07
2019-03-11T13:26:13.811Z,5.17
2019-03-11T13:32:08.814Z,7.7
2019-03-11T13:38:03.807Z,8.33
2019-03-11T13:43:58.809Z,8.5
2019-03-11T13:49:53.813Z,9.04
2019-03-11T13:55:48.813Z,6.06
2019-03-11T14:01:43.875Z,7.47
2019-03-11T14:07:38.873Z,7.89
2019-03-11T14:13:33.843Z,7.85
2019-03-11T14:19:28.812Z,3.91
2019-03-11T14:25:23.828Z,1.65
2019-03-11T14:31:18.856Z,1.59
2019-03-11T14:37:13.833Z,5.11
2019-03-11T14:43:08.849Z,5.42
2019-03-11T14:49:03.824Z,1.03
2019-03-11T14:54:58.863Z,4.41
2019-03-11T15:00:53.862Z,7.08
2019-03-11T15:06:48.849Z,4.12
2019-03-11T15:12:43.878Z,4.2
2019-03-11T15:18:38.857Z,4.97
2019-03-11T15:24:33.862Z,2.67
2019-03-11T15:30:28.853Z,4.28
2019-03-11T15:36:33.031Z,5.27
2019-03-11T15:42:18.895Z,2.87
2019-03-11T15:48:13.929Z,3.89
2019-03-11T15:54:08.865Z,3.32
2019-03-11T16:00:03.894Z,2.48
2019-03-11T16:05:58.898Z,3.73
2019-03-11T16:11:53.877Z,4.42
2019-03-11T16:17:48.905Z,3.52
2019-03-11T16:23:43.913Z,3.42
2019-03-11T16:29:38.943Z,2.82
2019-03-11T16:35:33.898Z,1.8
2019-03-11T16:41:28.917Z,1.11
2019-03-11T16:47:23.914Z,1.97
2019-03-11T16:53:18.987Z,2.75
2019-03-11T16:59:13.898Z,2.23
2019-03-11T17:05:08.916Z,2.22
2019-03-11T17:11:03.907Z,1.6
2019-03-11T17:16:58.940Z,2.65
2019-03-11T17:22:53.924Z,0.73
2019-03-11T17:28:48.910Z,1.56
2019-03-11T17:34:43.920Z,1.12
2019-03-11T17:40:38.917Z,1.56
2019-03-11T17:46:33.959Z,0.98
2019-03-11T17:52:28.922Z,0.89
2019-03-11T17:58:23.971Z,1.5
2019-03-11T18:04:18.941Z,1.47
2019-03-11T18:10:13.945Z,1.61
2019-03-11T18:16:08.949Z,2.84
2019-03-11T18:22:03.964Z,0.83
2019-03-11T18:27:58.967Z,0.93
2019-03-11T18:33:54.041Z,1.36
2019-03-11T18:39:48.990Z,1.55
2019-03-11T18:45:43.978Z,1.22
2019-03-11T18:51:38.977Z,1.3
2019-03-11T18:57:33.972Z,1.87
2019-03-11T19:03:29.033Z,1.05
2019-03-11T19:09:24.010Z,0.77
2019-03-11T19:15:19.028Z,0.6
2019-03-11T19:21:13.998Z,0.58
2019-03-11T19:27:08.980Z,6.27
2019-03-11T19:33:04.021Z,3.44
2019-03-11T19:38:59.046Z,2.58
2019-03-11T19:44:54.048Z,1.88
2019-03-11T19:50:49.010Z,1.47
2019-03-11T19:56:44.032Z,0.8
2019-03-11T20:02:39.032Z,1.82
2019-03-11T20:08:34.064Z,2.41
2019-03-11T20:14:29.022Z,2.01
2019-03-11T20:20:24.036Z,2.36
2019-03-11T20:26:19.112Z,2.43
2019-03-11T20:32:14.087Z,3.45
2019-03-11T20:38:09.122Z,3.35
2019-03-11T20:44:05.024Z,3.08
2019-03-11T20:49:59.074Z,3.41
2019-03-11T20:55:54.079Z,2.65
2019-03-11T21:01:49.134Z,1.51
2019-03-11T21:07:44.043Z,1.48
2019-03-11T21:13:39.045Z,66.59
2019-03-11T21:19:34.055Z,39.43
2019-03-11T21:25:29.081Z,75.01
2019-03-11T21:31:24.101Z,98
2019-03-11T21:37:19.085Z,26.89
2019-03-11T21:43:14.041Z,44.27
2019-03-11T21:49:09.200Z,28.79
2019-03-11T21:55:04.085Z,8.7
2019-03-11T22:00:59.070Z,13.92
2019-03-11T22:06:54.123Z,16.29
2019-03-11T22:12:49.114Z,3.19
2019-03-11T22:18:44.067Z,1.51
2019-03-11T22:24:39.105Z,0.45
2019-03-11T22:30:34.079Z,1.73
2019-03-11T22:36:29.133Z,7.42
2019-03-11T22:42:24.103Z,1.02
2019-03-11T22:48:20.830Z,2.38
2019-03-11T22:54:14.127Z,2.98
2019-03-11T23:00:09.087Z,0.63
2019-03-11T23:06:04.151Z,3.33
2019-03-11T23:11:59.159Z,1.74
2019-03-11T23:17:54.116Z,0.65
2019-03-11T23:23:49.148Z,3.22
2019-03-11T23:29:44.143Z,4.05
2019-03-11T23:35:39.157Z,2.86
2019-03-11T23:41:34.136Z,0.67
2019-03-11T23:47:29.123Z,0.73
2019-03-11T23:53:24.131Z,17.83
2019-03-11T23:59:19.137Z,2.93
